sensor_id;sensor_type;location;lat;lon;timestamp;temperature;humidity
11855;DHT22;5987;53.140;8.904;2023-07-31T00:01:32;16.60;99.90
11855;DHT22;5987;53.140;8.904;2023-07-31T00:04:35;16.60;99.90
11855;DHT22;5987;53.140;8.904;2023-07-31T00:07:39;16.50;99.90
11855;DHT22;5987;53.140;8.904;2023-07-31T00:10:44;16.50;99.90
11855;DHT22;5987;53.140;8.904;2023-07-31T00:13:48;16.50;99.90
11855;DHT22;5987;53.140;8.904;2023-07-31T00:16:52;16.60;99.90
11855;DHT22;5987;53.140;8.904;2023-07-31T00:19:55;16.60;99.90
11855;DHT22;5987;53.140;8.904;2023-07-31T00:22:59;16.50;99.90
11855;DHT22;5987;53.140;8.904;2023-07-31T00:26:04;16.60;99.90
11855;DHT22;5987;53.140;8.904;2023-07-31T00:29:07;16.60;99.90
11855;DHT22;5987;53.140;8.904;2023-07-31T00:32:11;16.60;99.90
11855;DHT22;5987;53.140;8.904;2023-07-31T00:35:14;16.70;99.90
11855;DHT22;5987;53.140;8.904;2023-07-31T00:38:18;16.70;99.90
11855;DHT22;5987;53.140;8.904;2023-07-31T00:41:23;16.70;99.90
11855;DHT22;5987;53.140;8.904;2023-07-31T00:44:27;16.70;99.90
11855;DHT22;5987;53.140;8.904;2023-07-31T00:47:30;16.70;99.90
11855;DHT22;5987;53.140;8.904;2023-07-31T00:50:35;16.60;99.90
11855;DHT22;5987;53.140;8.904;2023-07-31T00:53:39;16.60;99.90
11855;DHT22;5987;53.140;8.904;2023-07-31T00:56:47;16.70;99.90
11855;DHT22;5987;53.140;8.904;2023-07-31T00:59:51;16.60;99.90
11855;DHT22;5987;53.140;8.904;2023-07-31T01:02:55;16.70;99.90
11855;DHT22;5987;53.140;8.904;2023-07-31T01:06:09;16.70;99.90
11855;DHT22;5987;53.140;8.904;2023-07-31T01:09:29;16.60;99.90
11855;DHT22;5987;53.140;8.904;2023-07-31T01:12:40;16.60;99.90
11855;DHT22;5987;53.140;8.904;2023-07-31T01:15:45;16.60;99.90
11855;DHT22;5987;53.140;8.904;2023-07-31T01:18:48;16.50;99.90
11855;DHT22;5987;53.140;8.904;2023-07-31T01:22:16;16.60;99.90
11855;DHT22;5987;53.140;8.904;2023-07-31T01:25:50;16.60;99.90
11855;DHT22;5987;53.140;8.904;2023-07-31T01:29:03;16.60;99.90
11855;DHT22;5987;53.140;8.904;2023-07-31T01:32:10;16.60;99.90
11855;DHT22;5987;53.140;8.904;2023-07-31T01:35:16;16.60;99.90
11855;DHT22;5987;53.140;8.904;2023-07-31T01:38:21;16.50;99.90
11855;DHT22;5987;53.140;8.904;2023-07-31T01:41:26;16.60;99.90
11855;DHT22;5987;53.140;8.904;2023-07-31T01:44:30;16.60;99.90
11855;DHT22;5987;53.140;8.904;2023-07-31T01:47:34;16.60;99.90
11855;DHT22;5987;53.140;8.904;2023-07-31T01:50:38;16.60;99.90
11855;DHT22;5987;53.140;8.904;2023-07-31T01:53:42;16.60;99.90
11855;DHT22;5987;53.140;8.904;2023-07-31T01:56:47;16.60;99.90
11855;DHT22;5987;53.140;8.904;2023-07-31T01:59:50;16.60;99.90
11855;DHT22;5987;53.140;8.904;2023-07-31T02:02:55;16.60;99.90
11855;DHT22;5987;53.140;8.904;2023-07-31T02:05:58;16.60;99.90
11855;DHT22;5987;53.140;8.904;2023-07-31T02:09:02;16.50;99.90
11855;DHT22;5987;53.140;8.904;2023-07-31T02:12:08;16.50;99.90
11855;DHT22;5987;53.140;8.904;2023-07-31T02:15:12;16.50;99.90
11855;DHT22;5987;53.140;8.904;2023-07-31T02:18:15;16.40;99.90
11855;DHT22;5987;53.140;8.904;2023-07-31T02:21:19;16.30;99.90
11855;DHT22;5987;53.140;8.904;2023-07-31T02:24:23;16.30;99.90
11855;DHT22;5987;53.140;8.904;2023-07-31T02:27:28;16.10;99.90
11855;DHT22;5987;53.140;8.904;2023-07-31T02:30:32;16.00;99.90
11855;DHT22;5987;53.140;8.904;2023-07-31T02:33:36;16.10;99.90
11855;DHT22;5987;53.140;8.904;2023-07-31T02:36:42;16.00;99.90
11855;DHT22;5987;53.140;8.904;2023-07-31T02:39:46;16.00;99.90
11855;DHT22;5987;53.140;8.904;2023-07-31T02:42:51;15.90;99.90
11855;DHT22;5987;53.140;8.904;2023-07-31T02:45:54;15.90;99.90
11855;DHT22;5987;53.140;8.904;2023-07-31T02:48:58;15.90;99.90
11855;DHT22;5987;53.140;8.904;2023-07-31T02:52:02;15.90;99.90
11855;DHT22;5987;53.140;8.904;2023-07-31T02:55:07;15.80;99.90
11855;DHT22;5987;53.140;8.904;2023-07-31T02:58:12;15.90;99.90
11855;DHT22;5987;53.140;8.904;2023-07-31T03:01:16;15.80;99.90
11855;DHT22;5987;53.140;8.904;2023-07-31T03:04:19;15.80;99.90
11855;DHT22;5987;53.140;8.904;2023-07-31T03:07:23;15.80;99.90
11855;DHT22;5987;53.140;8.904;2023-07-31T03:10:26;15.80;99.90
11855;DHT22;5987;53.140;8.904;2023-07-31T03:13:31;15.90;99.90
11855;DHT22;5987;53.140;8.904;2023-07-31T03:16:35;15.80;99.90
11855;DHT22;5987;53.140;8.904;2023-07-31T03:19:39;15.90;99.90
11855;DHT22;5987;53.140;8.904;2023-07-31T03:22:43;15.90;99.90
11855;DHT22;5987;53.140;8.904;2023-07-31T03:25:56;15.80;99.90
11855;DHT22;5987;53.140;8.904;2023-07-31T03:29:01;15.80;99.90
11855;DHT22;5987;53.140;8.904;2023-07-31T03:32:06;15.80;99.90
11855;DHT22;5987;53.140;8.904;2023-07-31T03:35:09;15.80;99.90
11855;DHT22;5987;53.140;8.904;2023-07-31T03:38:13;15.90;99.90
11855;DHT22;5987;53.140;8.904;2023-07-31T03:41:17;15.90;99.90
11855;DHT22;5987;53.140;8.904;2023-07-31T03:44:22;15.90;99.90
11855;DHT22;5987;53.140;8.904;2023-07-31T03:47:26;15.80;99.90
11855;DHT22;5987;53.140;8.904;2023-07-31T03:50:30;15.80;99.90
11855;DHT22;5987;53.140;8.904;2023-07-31T03:53:34;15.80;99.90
11855;DHT22;5987;53.140;8.904;2023-07-31T03:56:37;15.80;99.90
11855;DHT22;5987;53.140;8.904;2023-07-31T03:59:43;15.70;99.90
11855;DHT22;5987;53.140;8.904;2023-07-31T04:02:46;15.80;99.90
11855;DHT22;5987;53.140;8.904;2023-07-31T04:05:50;15.80;99.90
11855;DHT22;5987;53.140;8.904;2023-07-31T04:08:53;15.80;99.90
11855;DHT22;5987;53.140;8.904;2023-07-31T04:11:57;15.80;99.90
11855;DHT22;5987;53.140;8.904;2023-07-31T04:15:02;15.80;99.90
11855;DHT22;5987;53.140;8.904;2023-07-31T04:18:06;15.90;99.90
11855;DHT22;5987;53.140;8.904;2023-07-31T04:21:10;15.90;99.90
11855;DHT22;5987;53.140;8.904;2023-07-31T04:24:14;15.80;99.90
11855;DHT22;5987;53.140;8.904;2023-07-31T04:27:17;15.80;99.90
11855;DHT22;5987;53.140;8.904;2023-07-31T04:30:22;15.80;99.90
11855;DHT22;5987;53.140;8.904;2023-07-31T04:33:27;15.80;99.90
11855;DHT22;5987;53.140;8.904;2023-07-31T04:36:31;15.70;99.90
11855;DHT22;5987;53.140;8.904;2023-07-31T04:39:34;15.80;99.90
11855;DHT22;5987;53.140;8.904;2023-07-31T04:42:38;15.80;99.90
11855;DHT22;5987;53.140;8.904;2023-07-31T04:45:45;15.90;99.90
11855;DHT22;5987;53.140;8.904;2023-07-31T04:48:50;15.90;99.90
11855;DHT22;5987;53.140;8.904;2023-07-31T04:51:53;15.90;99.90
11855;DHT22;5987;53.140;8.904;2023-07-31T04:54:57;15.90;99.90
11855;DHT22;5987;53.140;8.904;2023-07-31T04:58:00;15.90;99.90
11855;DHT22;5987;53.140;8.904;2023-07-31T05:01:06;15.90;99.90
11855;DHT22;5987;53.140;8.904;2023-07-31T05:04:09;16.00;99.90
11855;DHT22;5987;53.140;8.904;2023-07-31T05:07:13;15.90;99.90
11855;DHT22;5987;53.140;8.904;2023-07-31T05:10:17;16.00;99.90
11855;DHT22;5987;53.140;8.904;2023-07-31T05:13:21;15.90;99.90
11855;DHT22;5987;53.140;8.904;2023-07-31T05:16:26;15.90;99.90
11855;DHT22;5987;53.140;8.904;2023-07-31T05:19:31;16.00;99.90
11855;DHT22;5987;53.140;8.904;2023-07-31T05:22:35;16.00;99.90
11855;DHT22;5987;53.140;8.904;2023-07-31T05:25:38;16.10;99.90
11855;DHT22;5987;53.140;8.904;2023-07-31T05:28:42;16.10;99.90
11855;DHT22;5987;53.140;8.904;2023-07-31T05:31:47;16.10;99.90
11855;DHT22;5987;53.140;8.904;2023-07-31T05:34:51;16.00;99.90
11855;DHT22;5987;53.140;8.904;2023-07-31T05:37:55;16.00;99.90
11855;DHT22;5987;53.140;8.904;2023-07-31T05:40:58;16.00;99.90
11855;DHT22;5987;53.140;8.904;2023-07-31T05:44:02;15.90;99.90
11855;DHT22;5987;53.140;8.904;2023-07-31T05:47:07;16.00;99.90
11855;DHT22;5987;53.140;8.904;2023-07-31T05:50:11;16.00;99.90
11855;DHT22;5987;53.140;8.904;2023-07-31T05:53:16;16.00;99.90
11855;DHT22;5987;53.140;8.904;2023-07-31T05:56:19;16.10;99.90
11855;DHT22;5987;53.140;8.904;2023-07-31T05:59:23;16.20;99.90
11855;DHT22;5987;53.140;8.904;2023-07-31T06:02:28;16.30;99.90
11855;DHT22;5987;53.140;8.904;2023-07-31T06:05:35;16.40;99.90
11855;DHT22;5987;53.140;8.904;2023-07-31T06:08:39;16.40;99.90
11855;DHT22;5987;53.140;8.904;2023-07-31T06:11:43;16.50;99.90
11855;DHT22;5987;53.140;8.904;2023-07-31T06:14:47;16.60;99.90
11855;DHT22;5987;53.140;8.904;2023-07-31T06:17:52;16.70;99.90
11855;DHT22;5987;53.140;8.904;2023-07-31T06:20:56;16.60;99.90
11855;DHT22;5987;53.140;8.904;2023-07-31T06:24:00;16.60;99.90
11855;DHT22;5987;53.140;8.904;2023-07-31T06:27:04;16.60;99.90
11855;DHT22;5987;53.140;8.904;2023-07-31T06:30:09;16.60;99.90
11855;DHT22;5987;53.140;8.904;2023-07-31T06:33:14;16.60;99.90
11855;DHT22;5987;53.140;8.904;2023-07-31T06:36:18;16.60;99.90
11855;DHT22;5987;53.140;8.904;2023-07-31T06:39:22;16.60;99.90
11855;DHT22;5987;53.140;8.904;2023-07-31T06:42:25;16.50;99.90
11855;DHT22;5987;53.140;8.904;2023-07-31T06:45:29;16.60;99.90
11855;DHT22;5987;53.140;8.904;2023-07-31T06:48:34;16.60;99.90
11855;DHT22;5987;53.140;8.904;2023-07-31T06:51:38;16.50;99.90
11855;DHT22;5987;53.140;8.904;2023-07-31T06:54:42;16.30;99.90
11855;DHT22;5987;53.140;8.904;2023-07-31T06:57:46;16.40;99.90
11855;DHT22;5987;53.140;8.904;2023-07-31T07:00:50;16.50;99.90
11855;DHT22;5987;53.140;8.904;2023-07-31T07:03:55;16.30;99.90
11855;DHT22;5987;53.140;8.904;2023-07-31T07:06:59;16.30;99.90
11855;DHT22;5987;53.140;8.904;2023-07-31T07:10:03;16.20;99.90
11855;DHT22;5987;53.140;8.904;2023-07-31T07:13:08;16.30;99.90
11855;DHT22;5987;53.140;8.904;2023-07-31T07:16:11;16.40;99.90
11855;DHT22;5987;53.140;8.904;2023-07-31T07:19:16;16.50;99.90
11855;DHT22;5987;53.140;8.904;2023-07-31T07:22:20;16.60;99.90
11855;DHT22;5987;53.140;8.904;2023-07-31T07:25:23;16.70;99.90
11855;DHT22;5987;53.140;8.904;2023-07-31T07:28:27;16.70;99.90
11855;DHT22;5987;53.140;8.904;2023-07-31T07:31:31;16.90;99.90
11855;DHT22;5987;53.140;8.904;2023-07-31T07:34:37;17.00;99.90
11855;DHT22;5987;53.140;8.904;2023-07-31T07:37:40;17.10;99.90
11855;DHT22;5987;53.140;8.904;2023-07-31T07:40:44;17.10;99.90
11855;DHT22;5987;53.140;8.904;2023-07-31T07:43:48;17.10;99.90
11855;DHT22;5987;53.140;8.904;2023-07-31T07:46:53;17.00;99.90
11855;DHT22;5987;53.140;8.904;2023-07-31T07:49:58;16.90;99.90
11855;DHT22;5987;53.140;8.904;2023-07-31T07:53:02;17.00;99.90
11855;DHT22;5987;53.140;8.904;2023-07-31T07:56:05;17.00;99.90
11855;DHT22;5987;53.140;8.904;2023-07-31T07:59:09;17.10;99.90
11855;DHT22;5987;53.140;8.904;2023-07-31T08:02:12;17.10;99.90
11855;DHT22;5987;53.140;8.904;2023-07-31T08:05:18;17.10;99.90
11855;DHT22;5987;53.140;8.904;2023-07-31T08:08:21;17.20;99.90
11855;DHT22;5987;53.140;8.904;2023-07-31T08:11:25;17.10;99.90
11855;DHT22;5987;53.140;8.904;2023-07-31T08:14:29;17.20;99.90
11855;DHT22;5987;53.140;8.904;2023-07-31T08:17:34;17.20;99.90
11855;DHT22;5987;53.140;8.904;2023-07-31T08:20:39;17.20;99.90
11855;DHT22;5987;53.140;8.904;2023-07-31T08:23:43;17.30;99.90
11855;DHT22;5987;53.140;8.904;2023-07-31T08:26:47;17.40;99.90
11855;DHT22;5987;53.140;8.904;2023-07-31T08:29:52;17.40;99.90
11855;DHT22;5987;53.140;8.904;2023-07-31T08:32:55;17.50;99.90
11855;DHT22;5987;53.140;8.904;2023-07-31T08:36:00;17.60;99.90
11855;DHT22;5987;53.140;8.904;2023-07-31T08:39:04;17.60;99.90
11855;DHT22;5987;53.140;8.904;2023-07-31T08:42:08;17.70;99.90
11855;DHT22;5987;53.140;8.904;2023-07-31T08:45:14;17.80;99.90
11855;DHT22;5987;53.140;8.904;2023-07-31T08:48:21;17.90;99.90
11855;DHT22;5987;53.140;8.904;2023-07-31T08:51:28;17.90;99.90
11855;DHT22;5987;53.140;8.904;2023-07-31T08:54:32;17.90;99.90
11855;DHT22;5987;53.140;8.904;2023-07-31T08:57:38;18.00;99.90
11855;DHT22;5987;53.140;8.904;2023-07-31T09:00:43;17.90;99.90
11855;DHT22;5987;53.140;8.904;2023-07-31T09:03:47;17.90;99.90
11855;DHT22;5987;53.140;8.904;2023-07-31T09:07:02;18.00;99.90
11855;DHT22;5987;53.140;8.904;2023-07-31T09:10:07;18.10;99.90
11855;DHT22;5987;53.140;8.904;2023-07-31T09:13:11;18.00;99.90
11855;DHT22;5987;53.140;8.904;2023-07-31T09:16:15;18.10;99.90
11855;DHT22;5987;53.140;8.904;2023-07-31T09:19:25;18.00;99.90
11855;DHT22;5987;53.140;8.904;2023-07-31T09:22:35;18.10;99.90
11855;DHT22;5987;53.140;8.904;2023-07-31T09:25:39;18.10;99.90
11855;DHT22;5987;53.140;8.904;2023-07-31T09:28:46;18.10;99.90
11855;DHT22;5987;53.140;8.904;2023-07-31T09:31:51;18.00;99.90
11855;DHT22;5987;53.140;8.904;2023-07-31T09:34:54;18.00;99.90
11855;DHT22;5987;53.140;8.904;2023-07-31T09:38:03;18.00;99.90
11855;DHT22;5987;53.140;8.904;2023-07-31T09:41:08;18.00;99.90
11855;DHT22;5987;53.140;8.904;2023-07-31T09:44:13;17.90;99.90
11855;DHT22;5987;53.140;8.904;2023-07-31T09:47:22;17.90;99.90
11855;DHT22;5987;53.140;8.904;2023-07-31T09:50:28;18.00;99.90
11855;DHT22;5987;53.140;8.904;2023-07-31T09:53:33;18.00;99.90
11855;DHT22;5987;53.140;8.904;2023-07-31T09:56:42;18.00;99.90
11855;DHT22;5987;53.140;8.904;2023-07-31T09:59:47;18.10;99.90
11855;DHT22;5987;53.140;8.904;2023-07-31T10:02:52;18.30;99.90
11855;DHT22;5987;53.140;8.904;2023-07-31T10:05:57;18.60;99.90
11855;DHT22;5987;53.140;8.904;2023-07-31T10:09:06;18.70;99.90
11855;DHT22;5987;53.140;8.904;2023-07-31T10:12:12;18.80;99.90
11855;DHT22;5987;53.140;8.904;2023-07-31T10:15:20;18.90;99.90
11855;DHT22;5987;53.140;8.904;2023-07-31T10:18:25;18.80;99.90
11855;DHT22;5987;53.140;8.904;2023-07-31T10:21:29;18.70;99.90
11855;DHT22;5987;53.140;8.904;2023-07-31T10:24:38;18.50;99.90
11855;DHT22;5987;53.140;8.904;2023-07-31T10:27:43;18.50;99.90
11855;DHT22;5987;53.140;8.904;2023-07-31T10:30:46;18.40;99.90
11855;DHT22;5987;53.140;8.904;2023-07-31T10:33:52;18.30;99.90
11855;DHT22;5987;53.140;8.904;2023-07-31T10:37:21;18.50;99.90
11855;DHT22;5987;53.140;8.904;2023-07-31T10:40:28;18.50;99.90
11855;DHT22;5987;53.140;8.904;2023-07-31T10:43:33;18.70;99.90
11855;DHT22;5987;53.140;8.904;2023-07-31T10:46:36;18.70;99.90
11855;DHT22;5987;53.140;8.904;2023-07-31T10:49:41;18.70;99.90
11855;DHT22;5987;53.140;8.904;2023-07-31T10:52:49;18.80;99.90
11855;DHT22;5987;53.140;8.904;2023-07-31T10:55:58;18.70;99.90
11855;DHT22;5987;53.140;8.904;2023-07-31T10:59:02;18.70;99.90
11855;DHT22;5987;53.140;8.904;2023-07-31T11:02:24;18.80;99.90
11855;DHT22;5987;53.140;8.904;2023-07-31T11:05:45;18.90;99.90
11855;DHT22;5987;53.140;8.904;2023-07-31T11:08:54;18.80;99.90
11855;DHT22;5987;53.140;8.904;2023-07-31T11:11:59;19.00;99.90
11855;DHT22;5987;53.140;8.904;2023-07-31T11:15:19;19.10;99.90
11855;DHT22;5987;53.140;8.904;2023-07-31T11:18:23;19.10;99.90
11855;DHT22;5987;53.140;8.904;2023-07-31T11:21:29;19.00;99.90
11855;DHT22;5987;53.140;8.904;2023-07-31T11:24:32;18.90;99.90
11855;DHT22;5987;53.140;8.904;2023-07-31T11:27:40;18.90;99.90
11855;DHT22;5987;53.140;8.904;2023-07-31T11:30:46;19.00;99.90
11855;DHT22;5987;53.140;8.904;2023-07-31T11:33:50;19.20;99.90
11855;DHT22;5987;53.140;8.904;2023-07-31T11:36:54;19.20;99.90
11855;DHT22;5987;53.140;8.904;2023-07-31T11:40:01;19.30;99.90
11855;DHT22;5987;53.140;8.904;2023-07-31T11:43:07;19.40;99.90
11855;DHT22;5987;53.140;8.904;2023-07-31T11:46:11;19.30;99.90
11855;DHT22;5987;53.140;8.904;2023-07-31T11:49:17;19.20;99.90
11855;DHT22;5987;53.140;8.904;2023-07-31T11:52:21;19.20;99.90
11855;DHT22;5987;53.140;8.904;2023-07-31T11:55:27;19.30;99.90
11855;DHT22;5987;53.140;8.904;2023-07-31T11:58:34;19.40;99.90
11855;DHT22;5987;53.140;8.904;2023-07-31T12:01:40;19.50;99.90
11855;DHT22;5987;53.140;8.904;2023-07-31T12:04:47;19.70;99.90
11855;DHT22;5987;53.140;8.904;2023-07-31T12:07:53;19.60;99.90
11855;DHT22;5987;53.140;8.904;2023-07-31T12:11:03;19.50;99.90
11855;DHT22;5987;53.140;8.904;2023-07-31T12:14:19;19.50;99.90
11855;DHT22;5987;53.140;8.904;2023-07-31T12:17:25;19.50;99.90
11855;DHT22;5987;53.140;8.904;2023-07-31T12:20:33;19.30;99.90
11855;DHT22;5987;53.140;8.904;2023-07-31T12:23:38;19.40;99.90
11855;DHT22;5987;53.140;8.904;2023-07-31T12:26:46;19.50;99.90
11855;DHT22;5987;53.140;8.904;2023-07-31T12:29:52;19.50;99.90
11855;DHT22;5987;53.140;8.904;2023-07-31T12:32:56;19.50;99.90
11855;DHT22;5987;53.140;8.904;2023-07-31T12:36:02;19.60;99.90
11855;DHT22;5987;53.140;8.904;2023-07-31T12:39:07;19.70;99.90
11855;DHT22;5987;53.140;8.904;2023-07-31T12:42:12;19.60;99.90
11855;DHT22;5987;53.140;8.904;2023-07-31T12:45:17;19.50;99.90
11855;DHT22;5987;53.140;8.904;2023-07-31T12:48:23;19.60;99.90
11855;DHT22;5987;53.140;8.904;2023-07-31T12:51:28;19.60;99.90
11855;DHT22;5987;53.140;8.904;2023-07-31T12:54:37;19.50;99.90
11855;DHT22;5987;53.140;8.904;2023-07-31T12:57:44;19.50;99.90
11855;DHT22;5987;53.140;8.904;2023-07-31T13:00:53;19.40;99.90
11855;DHT22;5987;53.140;8.904;2023-07-31T13:03:57;19.40;99.90
11855;DHT22;5987;53.140;8.904;2023-07-31T13:07:01;19.30;99.90
11855;DHT22;5987;53.140;8.904;2023-07-31T13:10:06;19.40;99.90
11855;DHT22;5987;53.140;8.904;2023-07-31T13:13:12;19.50;99.90
11855;DHT22;5987;53.140;8.904;2023-07-31T13:16:19;19.60;99.90
11855;DHT22;5987;53.140;8.904;2023-07-31T13:19:24;19.70;99.90
11855;DHT22;5987;53.140;8.904;2023-07-31T13:22:28;19.70;99.90
11855;DHT22;5987;53.140;8.904;2023-07-31T13:25:32;19.70;99.90
11855;DHT22;5987;53.140;8.904;2023-07-31T13:28:37;19.70;99.90
11855;DHT22;5987;53.140;8.904;2023-07-31T13:31:43;19.70;99.90
11855;DHT22;5987;53.140;8.904;2023-07-31T13:34:47;19.60;99.90
11855;DHT22;5987;53.140;8.904;2023-07-31T13:37:52;19.60;99.90
11855;DHT22;5987;53.140;8.904;2023-07-31T13:40:57;19.60;99.90
11855;DHT22;5987;53.140;8.904;2023-07-31T13:44:01;19.70;99.90
11855;DHT22;5987;53.140;8.904;2023-07-31T13:47:08;19.60;99.90
11855;DHT22;5987;53.140;8.904;2023-07-31T13:50:12;19.60;99.90
11855;DHT22;5987;53.140;8.904;2023-07-31T13:53:17;19.60;99.90
11855;DHT22;5987;53.140;8.904;2023-07-31T13:56:21;19.70;99.90
11855;DHT22;5987;53.140;8.904;2023-07-31T13:59:27;19.60;99.90
11855;DHT22;5987;53.140;8.904;2023-07-31T14:02:32;19.50;99.90
11855;DHT22;5987;53.140;8.904;2023-07-31T14:05:36;19.50;99.90
11855;DHT22;5987;53.140;8.904;2023-07-31T14:08:40;19.50;99.90
11855;DHT22;5987;53.140;8.904;2023-07-31T14:11:44;19.40;99.90
11855;DHT22;5987;53.140;8.904;2023-07-31T14:14:48;19.40;99.90
11855;DHT22;5987;53.140;8.904;2023-07-31T14:17:57;19.30;99.90
11855;DHT22;5987;53.140;8.904;2023-07-31T14:21:03;19.30;99.90
11855;DHT22;5987;53.140;8.904;2023-07-31T14:24:08;19.20;99.90
11855;DHT22;5987;53.140;8.904;2023-07-31T14:27:14;19.30;99.90
11855;DHT22;5987;53.140;8.904;2023-07-31T14:30:18;19.30;99.90
11855;DHT22;5987;53.140;8.904;2023-07-31T14:33:24;19.30;99.90
11855;DHT22;5987;53.140;8.904;2023-07-31T14:36:28;19.40;99.90
11855;DHT22;5987;53.140;8.904;2023-07-31T14:39:32;19.40;99.90
11855;DHT22;5987;53.140;8.904;2023-07-31T14:42:35;19.40;99.90
11855;DHT22;5987;53.140;8.904;2023-07-31T14:45:40;19.40;99.90
11855;DHT22;5987;53.140;8.904;2023-07-31T14:48:45;19.30;99.90
11855;DHT22;5987;53.140;8.904;2023-07-31T14:51:49;19.30;99.90
11855;DHT22;5987;53.140;8.904;2023-07-31T14:54:53;19.30;99.90
11855;DHT22;5987;53.140;8.904;2023-07-31T14:57:57;19.30;99.90
11855;DHT22;5987;53.140;8.904;2023-07-31T15:01:05;19.30;99.90
11855;DHT22;5987;53.140;8.904;2023-07-31T15:04:11;19.30;99.90
11855;DHT22;5987;53.140;8.904;2023-07-31T15:07:15;19.20;99.90
11855;DHT22;5987;53.140;8.904;2023-07-31T15:10:19;19.20;99.90
11855;DHT22;5987;53.140;8.904;2023-07-31T15:13:23;19.10;99.90
11855;DHT22;5987;53.140;8.904;2023-07-31T15:16:27;19.00;99.90
11855;DHT22;5987;53.140;8.904;2023-07-31T15:19:35;19.00;99.90
11855;DHT22;5987;53.140;8.904;2023-07-31T15:22:39;19.00;99.90
11855;DHT22;5987;53.140;8.904;2023-07-31T15:25:43;19.00;99.90
11855;DHT22;5987;53.140;8.904;2023-07-31T15:28:49;19.00;99.90
11855;DHT22;5987;53.140;8.904;2023-07-31T15:31:59;19.10;99.90
11855;DHT22;5987;53.140;8.904;2023-07-31T15:35:04;19.10;99.90
11855;DHT22;5987;53.140;8.904;2023-07-31T15:38:09;19.20;99.90
11855;DHT22;5987;53.140;8.904;2023-07-31T15:41:13;19.20;99.90
11855;DHT22;5987;53.140;8.904;2023-07-31T15:44:17;19.20;99.90
11855;DHT22;5987;53.140;8.904;2023-07-31T15:47:21;19.30;99.90
11855;DHT22;5987;53.140;8.904;2023-07-31T15:50:26;19.40;99.90
11855;DHT22;5987;53.140;8.904;2023-07-31T15:53:30;19.40;99.90
11855;DHT22;5987;53.140;8.904;2023-07-31T15:56:34;19.50;99.90
11855;DHT22;5987;53.140;8.904;2023-07-31T15:59:38;19.50;99.90
11855;DHT22;5987;53.140;8.904;2023-07-31T16:02:41;19.50;99.90
11855;DHT22;5987;53.140;8.904;2023-07-31T16:05:47;19.40;99.90
11855;DHT22;5987;53.140;8.904;2023-07-31T16:08:51;19.40;99.90
11855;DHT22;5987;53.140;8.904;2023-07-31T16:11:56;19.40;99.90
11855;DHT22;5987;53.140;8.904;2023-07-31T16:15:00;19.30;99.90
11855;DHT22;5987;53.140;8.904;2023-07-31T16:18:04;19.40;99.90
11855;DHT22;5987;53.140;8.904;2023-07-31T16:21:09;19.40;99.90
11855;DHT22;5987;53.140;8.904;2023-07-31T16:24:16;19.50;99.90
11855;DHT22;5987;53.140;8.904;2023-07-31T16:27:19;19.60;99.90
11855;DHT22;5987;53.140;8.904;2023-07-31T16:30:26;19.50;99.90
11855;DHT22;5987;53.140;8.904;2023-07-31T16:33:29;19.40;99.90
11855;DHT22;5987;53.140;8.904;2023-07-31T16:36:37;19.50;99.90
11855;DHT22;5987;53.140;8.904;2023-07-31T16:39:41;19.40;99.90
11855;DHT22;5987;53.140;8.904;2023-07-31T16:42:48;19.40;99.90
11855;DHT22;5987;53.140;8.904;2023-07-31T16:45:52;19.30;99.90
11855;DHT22;5987;53.140;8.904;2023-07-31T16:48:56;19.30;99.90
11855;DHT22;5987;53.140;8.904;2023-07-31T16:52:01;19.40;99.90
11855;DHT22;5987;53.140;8.904;2023-07-31T16:55:06;19.50;99.90
11855;DHT22;5987;53.140;8.904;2023-07-31T16:58:10;19.60;99.90
11855;DHT22;5987;53.140;8.904;2023-07-31T17:01:13;19.60;99.90
11855;DHT22;5987;53.140;8.904;2023-07-31T17:04:17;19.50;99.90
11855;DHT22;5987;53.140;8.904;2023-07-31T17:07:23;19.40;99.90
11855;DHT22;5987;53.140;8.904;2023-07-31T17:10:26;19.40;99.90
11855;DHT22;5987;53.140;8.904;2023-07-31T17:13:30;19.40;99.90
11855;DHT22;5987;53.140;8.904;2023-07-31T17:16:35;19.40;99.90
11855;DHT22;5987;53.140;8.904;2023-07-31T17:19:39;19.40;99.90
11855;DHT22;5987;53.140;8.904;2023-07-31T17:22:44;19.40;99.90
11855;DHT22;5987;53.140;8.904;2023-07-31T17:25:50;19.40;99.90
11855;DHT22;5987;53.140;8.904;2023-07-31T17:28:54;19.30;99.90
11855;DHT22;5987;53.140;8.904;2023-07-31T17:31:57;19.30;99.90
11855;DHT22;5987;53.140;8.904;2023-07-31T17:35:01;19.20;99.90
11855;DHT22;5987;53.140;8.904;2023-07-31T17:38:07;19.20;99.90
11855;DHT22;5987;53.140;8.904;2023-07-31T17:41:10;19.20;99.90
11855;DHT22;5987;53.140;8.904;2023-07-31T17:44:14;19.20;99.90
11855;DHT22;5987;53.140;8.904;2023-07-31T17:47:18;19.00;99.90
11855;DHT22;5987;53.140;8.904;2023-07-31T17:50:21;19.10;99.90
11855;DHT22;5987;53.140;8.904;2023-07-31T17:53:26;19.10;99.90
11855;DHT22;5987;53.140;8.904;2023-07-31T17:56:30;19.10;99.90
11855;DHT22;5987;53.140;8.904;2023-07-31T17:59:36;19.00;99.90
11855;DHT22;5987;53.140;8.904;2023-07-31T18:02:40;19.00;99.90
11855;DHT22;5987;53.140;8.904;2023-07-31T18:05:44;19.00;99.90
11855;DHT22;5987;53.140;8.904;2023-07-31T18:08:50;18.90;99.90
11855;DHT22;5987;53.140;8.904;2023-07-31T18:11:54;18.80;99.90
11855;DHT22;5987;53.140;8.904;2023-07-31T18:14:58;18.80;99.90
11855;DHT22;5987;53.140;8.904;2023-07-31T18:18:02;18.70;99.90
11855;DHT22;5987;53.140;8.904;2023-07-31T18:21:06;18.70;99.90
11855;DHT22;5987;53.140;8.904;2023-07-31T18:24:11;18.50;99.90
11855;DHT22;5987;53.140;8.904;2023-07-31T18:27:15;18.50;99.90
11855;DHT22;5987;53.140;8.904;2023-07-31T18:30:20;18.50;99.90
11855;DHT22;5987;53.140;8.904;2023-07-31T18:33:24;18.40;99.90
11855;DHT22;5987;53.140;8.904;2023-07-31T18:36:27;18.40;99.90
11855;DHT22;5987;53.140;8.904;2023-07-31T18:39:33;18.40;99.90
11855;DHT22;5987;53.140;8.904;2023-07-31T18:42:36;18.30;99.90
11855;DHT22;5987;53.140;8.904;2023-07-31T18:45:40;18.30;99.90
11855;DHT22;5987;53.140;8.904;2023-07-31T18:48:44;18.30;99.90
11855;DHT22;5987;53.140;8.904;2023-07-31T18:51:48;18.30;99.90
11855;DHT22;5987;53.140;8.904;2023-07-31T18:54:53;18.20;99.90
11855;DHT22;5987;53.140;8.904;2023-07-31T18:57:57;18.10;99.90
11855;DHT22;5987;53.140;8.904;2023-07-31T19:01:01;18.10;99.90
11855;DHT22;5987;53.140;8.904;2023-07-31T19:04:04;18.10;99.90
11855;DHT22;5987;53.140;8.904;2023-07-31T19:07:08;18.00;99.90
11855;DHT22;5987;53.140;8.904;2023-07-31T19:10:13;18.00;99.90
11855;DHT22;5987;53.140;8.904;2023-07-31T19:13:18;18.00;99.90
11855;DHT22;5987;53.140;8.904;2023-07-31T19:16:22;17.90;99.90
11855;DHT22;5987;53.140;8.904;2023-07-31T19:19:26;17.80;99.90
11855;DHT22;5987;53.140;8.904;2023-07-31T19:22:30;17.70;99.90
11855;DHT22;5987;53.140;8.904;2023-07-31T19:25:34;17.70;99.90
11855;DHT22;5987;53.140;8.904;2023-07-31T19:28:38;17.70;99.90
11855;DHT22;5987;53.140;8.904;2023-07-31T19:31:42;17.70;99.90
11855;DHT22;5987;53.140;8.904;2023-07-31T19:34:46;17.70;99.90
11855;DHT22;5987;53.140;8.904;2023-07-31T19:37:51;17.70;99.90
11855;DHT22;5987;53.140;8.904;2023-07-31T19:40:58;17.80;99.90
11855;DHT22;5987;53.140;8.904;2023-07-31T19:44:03;17.70;99.90
11855;DHT22;5987;53.140;8.904;2023-07-31T19:47:07;17.80;99.90